createdAt,value
2018-07-31T00:02:31.251Z,5.50
2018-07-31T00:07:33.733Z,6.50
2018-07-31T00:12:36.260Z,5.60
2018-07-31T00:17:38.756Z,6.20
2018-07-31T00:22:41.364Z,4.57
2018-07-31T00:27:43.866Z,5.87
2018-07-31T00:32:46.358Z,6.57
2018-07-31T00:37:48.856Z,6.50
2018-07-31T00:42:52.101Z,5.97
2018-07-31T00:47:54.594Z,6.47
2018-07-31T00:52:57.098Z,7.07
2018-07-31T00:57:59.590Z,6.80
2018-07-31T01:03:02.073Z,6.00
2018-07-31T01:08:04.558Z,6.50
2018-07-31T01:13:07.809Z,5.93
2018-07-31T01:18:10.369Z,6.30
2018-07-31T01:23:13.688Z,6.23
2018-07-31T01:28:17.012Z,7.17
2018-07-31T01:33:19.502Z,5.97
2018-07-31T01:38:22.005Z,7.37
2018-07-31T01:43:24.495Z,6.27
2018-07-31T01:48:27.741Z,5.77
2018-07-31T01:53:30.240Z,6.43
2018-07-31T01:58:32.705Z,7.73
2018-07-31T02:03:35.184Z,6.40
2018-07-31T02:08:37.676Z,6.93
2018-07-31T02:13:40.199Z,7.50
2018-07-31T02:18:42.657Z,6.73
2018-07-31T02:23:45.137Z,6.93
2018-07-31T02:28:47.621Z,7.10
2018-07-31T02:33:50.106Z,6.30
2018-07-31T02:38:52.585Z,6.90
2018-07-31T02:43:55.073Z,8.30
2018-07-31T02:48:57.557Z,8.30
2018-07-31T02:54:00.049Z,7.10
2018-07-31T02:59:02.534Z,6.87
2018-07-31T03:04:05.031Z,6.90
2018-07-31T03:09:07.509Z,7.23
2018-07-31T03:14:09.997Z,8.47
2018-07-31T03:19:12.496Z,6.27
2018-07-31T03:24:14.978Z,6.80
2018-07-31T03:29:17.490Z,6.87
2018-07-31T03:34:19.973Z,6.30
2018-07-31T03:39:22.480Z,7.60
2018-07-31T03:44:24.980Z,7.13
2018-07-31T03:49:27.464Z,7.60
2018-07-31T03:54:29.957Z,7.33
2018-07-31T03:59:33.220Z,7.33
2018-07-31T04:04:35.731Z,6.80
2018-07-31T04:09:38.255Z,7.30
2018-07-31T04:14:40.758Z,7.47
2018-07-31T04:19:44.092Z,7.00
2018-07-31T04:24:46.592Z,7.37
2018-07-31T04:29:49.085Z,8.17
2018-07-31T04:34:51.568Z,7.33
2018-07-31T04:39:54.824Z,7.70
2018-07-31T04:44:57.314Z,8.80
2018-07-31T04:49:59.796Z,11.10
2018-07-31T04:55:02.293Z,10.40
2018-07-31T05:00:04.793Z,9.40
2018-07-31T05:05:07.273Z,10.00
2018-07-31T05:10:09.769Z,11.00
2018-07-31T05:15:12.373Z,10.20
2018-07-31T05:20:14.965Z,10.50
2018-07-31T05:25:17.498Z,10.80
2018-07-31T05:30:19.963Z,11.00
2018-07-31T05:35:22.458Z,10.50
2018-07-31T05:40:24.966Z,10.07
2018-07-31T05:45:28.184Z,10.40
2018-07-31T05:50:31.445Z,9.73
2018-07-31T05:55:34.500Z,9.10
2018-07-31T06:00:36.989Z,8.57
2018-07-31T06:05:39.494Z,9.93
2018-07-31T06:10:42.753Z,8.17
2018-07-31T06:15:45.233Z,8.20
2018-07-31T06:20:47.715Z,8.27
2018-07-31T06:25:50.199Z,7.87
2018-07-31T06:30:52.778Z,7.83
2018-07-31T06:35:55.738Z,7.60
2018-07-31T06:40:58.213Z,8.27
2018-07-31T06:46:00.881Z,8.13
2018-07-31T06:51:03.523Z,7.10
2018-07-31T06:56:06.106Z,7.53
2018-07-31T07:01:08.580Z,8.20
2018-07-31T07:06:11.483Z,6.37
2018-07-31T07:11:13.953Z,7.67
2018-07-31T07:16:16.437Z,6.87
2018-07-31T07:21:18.918Z,6.63
2018-07-31T07:26:21.404Z,7.10
2018-07-31T07:31:23.888Z,7.07
2018-07-31T07:36:26.372Z,6.33
2018-07-31T07:41:29.330Z,6.30
2018-07-31T07:46:32.561Z,6.23
2018-07-31T07:51:35.041Z,6.83
2018-07-31T07:56:38.330Z,6.20
2018-07-31T08:01:40.792Z,6.40
2018-07-31T08:06:43.281Z,6.00
2018-07-31T08:11:45.760Z,7.20
2018-07-31T08:16:48.644Z,5.77
2018-07-31T08:21:51.650Z,6.97
2018-07-31T08:26:54.100Z,6.33
2018-07-31T08:31:56.592Z,5.80
2018-07-31T08:36:59.068Z,5.20
2018-07-31T08:42:01.548Z,6.80
2018-07-31T08:47:04.836Z,5.80
2018-07-31T08:52:07.494Z,6.53
2018-07-31T08:57:10.161Z,5.33
2018-07-31T09:02:13.527Z,6.20
2018-07-31T09:07:16.840Z,5.47
2018-07-31T09:12:19.389Z,6.30
2018-07-31T09:17:21.876Z,5.77
2018-07-31T09:22:24.821Z,5.80
2018-07-31T09:27:27.492Z,4.67
2018-07-31T09:32:31.634Z,5.20
2018-07-31T09:37:34.335Z,4.20
2018-07-31T09:42:36.820Z,4.47
2018-07-31T09:47:39.298Z,4.40
2018-07-31T09:52:41.770Z,4.70
2018-07-31T09:57:44.250Z,4.13
2018-07-31T10:02:46.741Z,4.67
2018-07-31T10:07:49.245Z,4.80
2018-07-31T10:12:51.732Z,4.43
2018-07-31T10:17:54.235Z,4.10
2018-07-31T10:22:57.467Z,4.40
2018-07-31T10:27:59.944Z,4.60
2018-07-31T10:33:02.424Z,4.90
2018-07-31T10:38:04.914Z,4.47
2018-07-31T10:43:07.392Z,4.37
2018-07-31T10:48:09.883Z,4.37
2018-07-31T10:53:12.373Z,4.23
2018-07-31T10:58:14.966Z,4.13
2018-07-31T11:03:17.337Z,4.20
2018-07-31T11:08:19.824Z,4.63
2018-07-31T11:13:22.358Z,3.80
2018-07-31T11:18:24.796Z,4.33
2018-07-31T11:23:27.264Z,3.93
2018-07-31T11:28:29.744Z,3.70
2018-07-31T11:33:32.224Z,4.23
2018-07-31T11:38:34.714Z,4.77
2018-07-31T11:43:37.197Z,4.10
2018-07-31T11:48:39.685Z,4.00
2018-07-31T11:53:42.172Z,3.60
2018-07-31T11:58:44.644Z,3.87
2018-07-31T12:03:47.133Z,3.90
2018-07-31T12:08:49.613Z,3.70
2018-07-31T12:13:52.129Z,3.50
2018-07-31T12:18:54.581Z,3.93
2018-07-31T12:23:57.064Z,3.37
2018-07-31T12:28:59.681Z,3.50
2018-07-31T12:34:02.184Z,4.27
2018-07-31T12:39:04.664Z,3.23
2018-07-31T12:44:07.988Z,3.90
2018-07-31T12:49:10.715Z,3.50
2018-07-31T12:54:13.198Z,3.50
2018-07-31T12:59:15.682Z,3.30
2018-07-31T13:04:18.479Z,2.70
2018-07-31T13:09:20.965Z,4.20
2018-07-31T13:14:24.234Z,3.43
2018-07-31T13:19:26.721Z,4.17
2018-07-31T13:24:29.213Z,3.87
2018-07-31T13:29:31.701Z,3.57
2018-07-31T13:34:34.189Z,3.77
2018-07-31T13:39:36.674Z,3.20
2018-07-31T13:44:40.298Z,3.50
2018-07-31T13:49:42.796Z,3.50
2018-07-31T13:54:45.280Z,3.70
2018-07-31T13:59:47.769Z,3.40
2018-07-31T14:04:50.507Z,4.07
2018-07-31T14:09:53.003Z,3.30
2018-07-31T14:14:55.481Z,3.23
2018-07-31T14:19:58.724Z,2.80
2018-07-31T14:25:01.214Z,3.33
2018-07-31T14:30:03.701Z,3.20
2018-07-31T14:35:06.181Z,3.83
2018-07-31T14:40:09.678Z,3.17
2018-07-31T14:45:12.156Z,3.93
2018-07-31T14:50:14.653Z,3.90
2018-07-31T14:55:17.140Z,3.87
2018-07-31T15:00:19.642Z,4.50
2018-07-31T15:05:22.136Z,4.00
2018-07-31T15:10:24.625Z,4.40
2018-07-31T15:15:27.109Z,4.30
2018-07-31T15:20:29.595Z,4.77
2018-07-31T15:25:32.849Z,5.40
2018-07-31T15:30:35.328Z,4.70
2018-07-31T15:35:37.815Z,5.27
2018-07-31T15:40:40.296Z,4.30
2018-07-31T15:45:42.774Z,4.63
2018-07-31T15:50:45.257Z,4.57
2018-07-31T15:55:47.748Z,4.70
2018-07-31T16:00:50.236Z,4.50
2018-07-31T16:05:52.885Z,4.63
2018-07-31T16:10:55.328Z,5.10
2018-07-31T16:15:57.825Z,3.73
2018-07-31T16:21:00.305Z,4.20
2018-07-31T16:26:02.800Z,4.10
2018-07-31T16:31:06.030Z,4.30
2018-07-31T16:36:08.527Z,4.47
2018-07-31T16:41:11.005Z,4.10
2018-07-31T16:46:13.494Z,4.27
2018-07-31T16:51:16.790Z,3.80
2018-07-31T16:56:19.241Z,3.63
2018-07-31T17:01:21.716Z,3.53
2018-07-31T17:06:24.209Z,3.17
2018-07-31T17:11:26.692Z,3.47
2018-07-31T17:16:29.185Z,2.73
2018-07-31T17:21:31.671Z,3.20
2018-07-31T17:26:34.146Z,3.47
2018-07-31T17:31:36.631Z,3.33
2018-07-31T17:36:39.112Z,4.73
2018-07-31T17:41:41.601Z,3.77
2018-07-31T17:46:44.084Z,3.77
2018-07-31T17:51:46.570Z,3.27
2018-07-31T17:56:49.333Z,3.93
2018-07-31T18:01:51.877Z,3.70
2018-07-31T18:06:54.371Z,4.17
2018-07-31T18:11:56.973Z,4.07
2018-07-31T18:17:00.224Z,3.37
2018-07-31T18:22:02.789Z,4.03
2018-07-31T18:27:05.283Z,3.60
2018-07-31T18:32:07.884Z,4.13
2018-07-31T18:37:10.393Z,4.30
2018-07-31T18:42:12.994Z,4.57
2018-07-31T18:47:15.532Z,6.73
2018-07-31T18:52:17.986Z,5.07
2018-07-31T18:57:20.574Z,3.60
2018-07-31T19:02:23.824Z,4.30
2018-07-31T19:07:26.305Z,3.93
2018-07-31T19:12:28.788Z,3.40
2018-07-31T19:17:31.297Z,3.57
2018-07-31T19:22:33.786Z,4.50
2018-07-31T19:27:36.304Z,3.97
2018-07-31T19:32:38.792Z,4.83
2018-07-31T19:37:41.264Z,4.23
2018-07-31T19:42:43.748Z,5.30
2018-07-31T19:47:46.311Z,4.40
2018-07-31T19:52:48.788Z,5.43
2018-07-31T19:57:51.276Z,4.63
2018-07-31T20:02:54.527Z,4.83
2018-07-31T20:07:57.013Z,5.40
2018-07-31T20:12:59.493Z,5.03
2018-07-31T20:18:01.981Z,4.70
2018-07-31T20:23:04.459Z,3.73
2018-07-31T20:28:06.949Z,4.00
2018-07-31T20:33:09.438Z,4.10
2018-07-31T20:38:11.921Z,4.80
2018-07-31T20:43:14.452Z,4.23
2018-07-31T20:48:16.876Z,5.30
2018-07-31T20:53:19.357Z,4.77
2018-07-31T20:58:22.604Z,4.83
2018-07-31T21:03:25.082Z,4.70
2018-07-31T21:08:27.570Z,4.63
2018-07-31T21:13:30.045Z,4.47
2018-07-31T21:18:32.532Z,4.33
2018-07-31T21:23:35.009Z,4.70
2018-07-31T21:28:37.490Z,4.20
2018-07-31T21:33:39.978Z,4.27
2018-07-31T21:38:42.470Z,3.80
2018-07-31T21:43:44.949Z,4.10
2018-07-31T21:48:47.428Z,4.03
2018-07-31T21:53:49.909Z,4.60
2018-07-31T21:58:52.393Z,5.03
2018-07-31T22:03:54.885Z,4.27
2018-07-31T22:08:57.369Z,4.47
2018-07-31T22:13:59.905Z,5.33
2018-07-31T22:19:02.340Z,5.47
2018-07-31T22:24:04.824Z,5.63
2018-07-31T22:29:07.305Z,4.57
2018-07-31T22:34:09.792Z,3.77
2018-07-31T22:39:12.272Z,3.50
2018-07-31T22:44:14.753Z,3.23
2018-07-31T22:49:17.233Z,3.23
2018-07-31T22:54:19.733Z,3.03
2018-07-31T22:59:22.228Z,2.93
2018-07-31T23:04:24.742Z,2.77
2018-07-31T23:09:27.234Z,2.87
2018-07-31T23:14:29.713Z,3.60
2018-07-31T23:19:32.198Z,3.83
2018-07-31T23:24:35.449Z,3.10
2018-07-31T23:29:37.955Z,3.60
2018-07-31T23:34:40.452Z,3.40
2018-07-31T23:39:42.940Z,3.00
2018-07-31T23:44:45.448Z,3.30
2018-07-31T23:49:47.961Z,3.20
2018-07-31T23:54:50.445Z,3.80
2018-07-31T23:59:52.938Z,3.93
